sensor_id;sensor_type;location;lat;lon;timestamp;temperature;humidity
3994;DHT22;2011;48.238;13.948;2023-11-18T00:02:15;3.70;99.90
3994;DHT22;2011;48.238;13.948;2023-11-18T00:04:42;3.70;99.90
3994;DHT22;2011;48.238;13.948;2023-11-18T00:07:09;3.60;99.90
3994;DHT22;2011;48.238;13.948;2023-11-18T00:09:36;3.60;99.90
3994;DHT22;2011;48.238;13.948;2023-11-18T00:12:06;3.60;99.90
3994;DHT22;2011;48.238;13.948;2023-11-18T00:14:33;3.60;99.90
3994;DHT22;2011;48.238;13.948;2023-11-18T00:17:00;3.60;99.90
3994;DHT22;2011;48.238;13.948;2023-11-18T00:19:28;3.60;99.90
3994;DHT22;2011;48.238;13.948;2023-11-18T00:21:55;3.60;99.90
3994;DHT22;2011;48.238;13.948;2023-11-18T00:24:22;3.60;99.90
3994;DHT22;2011;48.238;13.948;2023-11-18T00:26:50;3.50;99.90
3994;DHT22;2011;48.238;13.948;2023-11-18T00:29:18;3.60;99.90
3994;DHT22;2011;48.238;13.948;2023-11-18T00:31:46;3.60;99.90
3994;DHT22;2011;48.238;13.948;2023-11-18T00:34:13;3.50;99.90
3994;DHT22;2011;48.238;13.948;2023-11-18T00:36:40;3.50;99.90
3994;DHT22;2011;48.238;13.948;2023-11-18T00:39:07;3.50;99.90
3994;DHT22;2011;48.238;13.948;2023-11-18T00:41:34;3.50;99.90
3994;DHT22;2011;48.238;13.948;2023-11-18T00:44:01;3.50;99.90
3994;DHT22;2011;48.238;13.948;2023-11-18T00:46:30;3.50;99.90
3994;DHT22;2011;48.238;13.948;2023-11-18T00:49:01;3.50;99.90
3994;DHT22;2011;48.238;13.948;2023-11-18T00:51:29;3.50;99.90
3994;DHT22;2011;48.238;13.948;2023-11-18T00:53:56;3.50;99.90
3994;DHT22;2011;48.238;13.948;2023-11-18T00:56:23;3.50;99.90
3994;DHT22;2011;48.238;13.948;2023-11-18T00:58:50;3.50;99.90
3994;DHT22;2011;48.238;13.948;2023-11-18T01:01:18;3.50;99.90
3994;DHT22;2011;48.238;13.948;2023-11-18T01:03:46;3.50;99.90
3994;DHT22;2011;48.238;13.948;2023-11-18T01:06:13;3.50;99.90
3994;DHT22;2011;48.238;13.948;2023-11-18T01:08:43;3.50;99.90
3994;DHT22;2011;48.238;13.948;2023-11-18T01:11:10;3.40;99.90
3994;DHT22;2011;48.238;13.948;2023-11-18T01:13:38;3.40;99.90
3994;DHT22;2011;48.238;13.948;2023-11-18T01:16:06;3.50;99.90
3994;DHT22;2011;48.238;13.948;2023-11-18T01:18:33;3.50;99.90
3994;DHT22;2011;48.238;13.948;2023-11-18T01:21:01;3.50;99.90
3994;DHT22;2011;48.238;13.948;2023-11-18T01:23:28;3.50;99.90
3994;DHT22;2011;48.238;13.948;2023-11-18T01:25:55;3.50;99.90
3994;DHT22;2011;48.238;13.948;2023-11-18T01:28:23;3.50;99.90
3994;DHT22;2011;48.238;13.948;2023-11-18T01:30:52;3.60;99.90
3994;DHT22;2011;48.238;13.948;2023-11-18T01:33:19;3.50;99.90
3994;DHT22;2011;48.238;13.948;2023-11-18T01:35:46;3.50;99.90
3994;DHT22;2011;48.238;13.948;2023-11-18T01:38:14;3.40;99.90
3994;DHT22;2011;48.238;13.948;2023-11-18T01:40:41;3.40;99.90
3994;DHT22;2011;48.238;13.948;2023-11-18T01:43:09;3.40;99.90
3994;DHT22;2011;48.238;13.948;2023-11-18T01:45:39;3.40;99.90
3994;DHT22;2011;48.238;13.948;2023-11-18T01:48:07;3.40;99.90
3994;DHT22;2011;48.238;13.948;2023-11-18T01:50:35;3.40;99.90
3994;DHT22;2011;48.238;13.948;2023-11-18T01:53:03;3.50;99.90
3994;DHT22;2011;48.238;13.948;2023-11-18T01:55:31;3.50;99.90
3994;DHT22;2011;48.238;13.948;2023-11-18T01:58:00;3.40;99.90
3994;DHT22;2011;48.238;13.948;2023-11-18T02:00:34;3.40;99.90
3994;DHT22;2011;48.238;13.948;2023-11-18T02:03:04;3.40;99.90
3994;DHT22;2011;48.238;13.948;2023-11-18T02:05:31;3.40;99.90
3994;DHT22;2011;48.238;13.948;2023-11-18T02:08:00;3.40;99.90
3994;DHT22;2011;48.238;13.948;2023-11-18T02:10:31;3.40;99.90
3994;DHT22;2011;48.238;13.948;2023-11-18T02:13:06;3.40;99.90
3994;DHT22;2011;48.238;13.948;2023-11-18T02:15:36;3.40;99.90
3994;DHT22;2011;48.238;13.948;2023-11-18T02:18:06;3.40;99.90
3994;DHT22;2011;48.238;13.948;2023-11-18T02:20:36;3.40;99.90
3994;DHT22;2011;48.238;13.948;2023-11-18T02:23:04;3.50;99.90
3994;DHT22;2011;48.238;13.948;2023-11-18T02:28:07;3.40;99.90
3994;DHT22;2011;48.238;13.948;2023-11-18T02:30:35;3.40;99.90
3994;DHT22;2011;48.238;13.948;2023-11-18T02:33:06;3.40;99.90
3994;DHT22;2011;48.238;13.948;2023-11-18T02:35:40;3.40;99.90
3994;DHT22;2011;48.238;13.948;2023-11-18T02:38:09;3.40;99.90
3994;DHT22;2011;48.238;13.948;2023-11-18T02:40:40;3.40;99.90
3994;DHT22;2011;48.238;13.948;2023-11-18T02:43:11;3.40;99.90
3994;DHT22;2011;48.238;13.948;2023-11-18T02:45:38;3.50;99.90
3994;DHT22;2011;48.238;13.948;2023-11-18T02:48:07;3.50;99.90
3994;DHT22;2011;48.238;13.948;2023-11-18T02:50:34;3.50;99.90
3994;DHT22;2011;48.238;13.948;2023-11-18T02:53:01;3.50;99.90
3994;DHT22;2011;48.238;13.948;2023-11-18T02:55:29;3.50;99.90
3994;DHT22;2011;48.238;13.948;2023-11-18T02:57:56;3.50;99.90
3994;DHT22;2011;48.238;13.948;2023-11-18T03:00:24;3.50;99.90
3994;DHT22;2011;48.238;13.948;2023-11-18T03:02:52;3.50;99.90
3994;DHT22;2011;48.238;13.948;2023-11-18T03:05:19;3.50;99.90
3994;DHT22;2011;48.238;13.948;2023-11-18T03:07:46;3.50;99.90
3994;DHT22;2011;48.238;13.948;2023-11-18T03:10:15;3.60;99.90
3994;DHT22;2011;48.238;13.948;2023-11-18T03:12:46;3.60;99.90
3994;DHT22;2011;48.238;13.948;2023-11-18T03:15:15;3.60;99.90
3994;DHT22;2011;48.238;13.948;2023-11-18T03:17:45;3.60;99.90
3994;DHT22;2011;48.238;13.948;2023-11-18T03:20:14;3.60;99.90
3994;DHT22;2011;48.238;13.948;2023-11-18T03:22:43;3.60;99.90
3994;DHT22;2011;48.238;13.948;2023-11-18T03:25:11;3.70;99.90
3994;DHT22;2011;48.238;13.948;2023-11-18T03:27:38;3.70;99.90
3994;DHT22;2011;48.238;13.948;2023-11-18T03:30:06;3.70;99.90
3994;DHT22;2011;48.238;13.948;2023-11-18T03:32:33;3.70;99.90
3994;DHT22;2011;48.238;13.948;2023-11-18T03:35:02;3.60;99.90
3994;DHT22;2011;48.238;13.948;2023-11-18T03:37:30;3.60;99.90
3994;DHT22;2011;48.238;13.948;2023-11-18T03:39:57;3.70;99.90
3994;DHT22;2011;48.238;13.948;2023-11-18T03:42:24;3.70;99.90
3994;DHT22;2011;48.238;13.948;2023-11-18T03:44:53;3.70;99.90
3994;DHT22;2011;48.238;13.948;2023-11-18T03:47:20;3.70;99.90
3994;DHT22;2011;48.238;13.948;2023-11-18T03:49:49;3.60;99.90
3994;DHT22;2011;48.238;13.948;2023-11-18T03:52:18;3.70;99.90
3994;DHT22;2011;48.238;13.948;2023-11-18T03:54:45;3.60;99.90
3994;DHT22;2011;48.238;13.948;2023-11-18T03:57:12;3.60;99.90
3994;DHT22;2011;48.238;13.948;2023-11-18T03:59:39;3.60;99.90
3994;DHT22;2011;48.238;13.948;2023-11-18T04:02:06;3.60;99.90
3994;DHT22;2011;48.238;13.948;2023-11-18T04:04:33;3.60;99.90
3994;DHT22;2011;48.238;13.948;2023-11-18T04:07:00;3.60;99.90
3994;DHT22;2011;48.238;13.948;2023-11-18T04:09:29;3.60;99.90
3994;DHT22;2011;48.238;13.948;2023-11-18T04:11:56;3.70;99.90
3994;DHT22;2011;48.238;13.948;2023-11-18T04:14:24;3.60;99.90
3994;DHT22;2011;48.238;13.948;2023-11-18T04:16:51;3.60;99.90
3994;DHT22;2011;48.238;13.948;2023-11-18T04:19:19;3.60;99.90
3994;DHT22;2011;48.238;13.948;2023-11-18T04:21:47;3.60;99.90
3994;DHT22;2011;48.238;13.948;2023-11-18T04:24:15;3.60;99.90
3994;DHT22;2011;48.238;13.948;2023-11-18T04:26:43;3.60;99.90
3994;DHT22;2011;48.238;13.948;2023-11-18T04:29:10;3.60;99.90
3994;DHT22;2011;48.238;13.948;2023-11-18T04:31:37;3.60;99.90
3994;DHT22;2011;48.238;13.948;2023-11-18T04:34:05;3.60;99.90
3994;DHT22;2011;48.238;13.948;2023-11-18T04:36:32;3.50;99.90
3994;DHT22;2011;48.238;13.948;2023-11-18T04:39:00;3.50;99.90
3994;DHT22;2011;48.238;13.948;2023-11-18T04:41:28;3.50;99.90
3994;DHT22;2011;48.238;13.948;2023-11-18T04:43:58;3.50;99.90
3994;DHT22;2011;48.238;13.948;2023-11-18T04:46:25;3.40;99.90
3994;DHT22;2011;48.238;13.948;2023-11-18T04:48:52;3.40;99.90
3994;DHT22;2011;48.238;13.948;2023-11-18T04:51:20;3.30;99.90
3994;DHT22;2011;48.238;13.948;2023-11-18T04:53:48;3.30;99.90
3994;DHT22;2011;48.238;13.948;2023-11-18T04:56:15;3.30;99.90
3994;DHT22;2011;48.238;13.948;2023-11-18T04:58:43;3.30;99.90
3994;DHT22;2011;48.238;13.948;2023-11-18T05:01:14;3.30;99.90
3994;DHT22;2011;48.238;13.948;2023-11-18T05:03:41;3.30;99.90
3994;DHT22;2011;48.238;13.948;2023-11-18T05:06:08;3.30;99.90
3994;DHT22;2011;48.238;13.948;2023-11-18T05:08:35;3.30;99.90
3994;DHT22;2011;48.238;13.948;2023-11-18T05:11:02;3.40;99.90
3994;DHT22;2011;48.238;13.948;2023-11-18T05:13:30;3.30;99.90
3994;DHT22;2011;48.238;13.948;2023-11-18T05:15:58;3.30;99.90
3994;DHT22;2011;48.238;13.948;2023-11-18T05:18:26;3.30;99.90
3994;DHT22;2011;48.238;13.948;2023-11-18T05:20:55;3.30;99.90
3994;DHT22;2011;48.238;13.948;2023-11-18T05:23:23;3.20;99.90
3994;DHT22;2011;48.238;13.948;2023-11-18T05:25:50;3.20;99.90
3994;DHT22;2011;48.238;13.948;2023-11-18T05:28:17;3.20;99.90
3994;DHT22;2011;48.238;13.948;2023-11-18T05:30:45;3.20;99.90
3994;DHT22;2011;48.238;13.948;2023-11-18T05:33:12;3.20;99.90
3994;DHT22;2011;48.238;13.948;2023-11-18T05:35:45;3.10;99.90
3994;DHT22;2011;48.238;13.948;2023-11-18T05:38:15;3.10;99.90
3994;DHT22;2011;48.238;13.948;2023-11-18T05:40:44;3.10;99.90
3994;DHT22;2011;48.238;13.948;2023-11-18T05:43:22;3.10;99.90
3994;DHT22;2011;48.238;13.948;2023-11-18T05:45:50;3.10;99.90
3994;DHT22;2011;48.238;13.948;2023-11-18T05:48:37;3.20;99.90
3994;DHT22;2011;48.238;13.948;2023-11-18T05:51:05;3.20;99.90
3994;DHT22;2011;48.238;13.948;2023-11-18T05:53:32;3.20;99.90
3994;DHT22;2011;48.238;13.948;2023-11-18T05:55:59;3.10;99.90
3994;DHT22;2011;48.238;13.948;2023-11-18T05:58:26;3.20;99.90
3994;DHT22;2011;48.238;13.948;2023-11-18T06:00:54;3.20;99.90
3994;DHT22;2011;48.238;13.948;2023-11-18T06:03:21;3.20;99.90
3994;DHT22;2011;48.238;13.948;2023-11-18T06:05:48;3.20;99.90
3994;DHT22;2011;48.238;13.948;2023-11-18T06:08:16;3.20;99.90
3994;DHT22;2011;48.238;13.948;2023-11-18T06:10:43;3.20;99.90
3994;DHT22;2011;48.238;13.948;2023-11-18T06:13:10;3.20;99.90
3994;DHT22;2011;48.238;13.948;2023-11-18T06:15:38;3.10;99.90
3994;DHT22;2011;48.238;13.948;2023-11-18T06:18:05;3.10;99.90
3994;DHT22;2011;48.238;13.948;2023-11-18T06:20:34;3.10;99.90
3994;DHT22;2011;48.238;13.948;2023-11-18T06:23:00;3.10;99.90
3994;DHT22;2011;48.238;13.948;2023-11-18T06:25:29;3.10;99.90
3994;DHT22;2011;48.238;13.948;2023-11-18T06:27:57;3.10;99.90
3994;DHT22;2011;48.238;13.948;2023-11-18T06:30:24;3.20;99.90
3994;DHT22;2011;48.238;13.948;2023-11-18T06:32:51;3.20;99.90
3994;DHT22;2011;48.238;13.948;2023-11-18T06:35:18;3.20;99.90
3994;DHT22;2011;48.238;13.948;2023-11-18T06:37:47;3.20;99.90
3994;DHT22;2011;48.238;13.948;2023-11-18T06:40:14;3.20;99.90
3994;DHT22;2011;48.238;13.948;2023-11-18T06:42:45;3.20;99.90
3994;DHT22;2011;48.238;13.948;2023-11-18T06:45:13;3.20;99.90
3994;DHT22;2011;48.238;13.948;2023-11-18T06:47:40;3.30;99.90
3994;DHT22;2011;48.238;13.948;2023-11-18T06:50:10;3.30;99.90
3994;DHT22;2011;48.238;13.948;2023-11-18T06:52:39;3.20;99.90
3994;DHT22;2011;48.238;13.948;2023-11-18T06:55:07;3.20;99.90
3994;DHT22;2011;48.238;13.948;2023-11-18T06:57:34;3.20;99.90
3994;DHT22;2011;48.238;13.948;2023-11-18T07:00:03;3.20;99.90
3994;DHT22;2011;48.238;13.948;2023-11-18T07:02:34;3.20;99.90
3994;DHT22;2011;48.238;13.948;2023-11-18T07:05:01;3.30;99.90
3994;DHT22;2011;48.238;13.948;2023-11-18T07:07:28;3.30;99.90
3994;DHT22;2011;48.238;13.948;2023-11-18T07:09:55;3.30;99.90
3994;DHT22;2011;48.238;13.948;2023-11-18T07:12:22;3.30;99.90
3994;DHT22;2011;48.238;13.948;2023-11-18T07:14:49;3.30;99.90
3994;DHT22;2011;48.238;13.948;2023-11-18T07:17:17;3.30;99.90
3994;DHT22;2011;48.238;13.948;2023-11-18T07:19:44;3.40;99.90
3994;DHT22;2011;48.238;13.948;2023-11-18T07:22:11;3.30;99.90
3994;DHT22;2011;48.238;13.948;2023-11-18T07:24:38;3.40;99.90
3994;DHT22;2011;48.238;13.948;2023-11-18T07:27:05;3.40;99.90
3994;DHT22;2011;48.238;13.948;2023-11-18T07:29:32;3.40;99.90
3994;DHT22;2011;48.238;13.948;2023-11-18T07:32:01;3.40;99.90
3994;DHT22;2011;48.238;13.948;2023-11-18T07:34:32;3.50;99.90
3994;DHT22;2011;48.238;13.948;2023-11-18T07:36:59;3.50;99.90
3994;DHT22;2011;48.238;13.948;2023-11-18T07:39:27;3.60;99.90
3994;DHT22;2011;48.238;13.948;2023-11-18T07:42:10;3.60;99.90
3994;DHT22;2011;48.238;13.948;2023-11-18T07:44:37;3.60;99.90
3994;DHT22;2011;48.238;13.948;2023-11-18T07:47:05;3.60;99.90
3994;DHT22;2011;48.238;13.948;2023-11-18T07:49:34;3.60;99.90
3994;DHT22;2011;48.238;13.948;2023-11-18T07:52:01;3.60;99.90
3994;DHT22;2011;48.238;13.948;2023-11-18T07:54:28;3.60;99.90
3994;DHT22;2011;48.238;13.948;2023-11-18T07:56:55;3.70;99.90
3994;DHT22;2011;48.238;13.948;2023-11-18T07:59:23;3.80;99.90
3994;DHT22;2011;48.238;13.948;2023-11-18T08:01:49;3.90;99.90
3994;DHT22;2011;48.238;13.948;2023-11-18T08:04:18;4.00;99.90
3994;DHT22;2011;48.238;13.948;2023-11-18T08:06:48;4.10;99.90
3994;DHT22;2011;48.238;13.948;2023-11-18T08:09:15;4.10;99.90
3994;DHT22;2011;48.238;13.948;2023-11-18T08:11:48;4.20;99.90
3994;DHT22;2011;48.238;13.948;2023-11-18T08:14:15;4.30;99.90
3994;DHT22;2011;48.238;13.948;2023-11-18T08:16:42;4.40;99.90
3994;DHT22;2011;48.238;13.948;2023-11-18T08:19:09;4.40;99.90
3994;DHT22;2011;48.238;13.948;2023-11-18T08:21:36;4.50;99.90
3994;DHT22;2011;48.238;13.948;2023-11-18T08:24:06;4.50;99.90
3994;DHT22;2011;48.238;13.948;2023-11-18T08:26:34;4.60;99.90
3994;DHT22;2011;48.238;13.948;2023-11-18T08:29:01;4.60;99.90
3994;DHT22;2011;48.238;13.948;2023-11-18T08:31:28;4.60;99.90
3994;DHT22;2011;48.238;13.948;2023-11-18T08:33:55;4.60;99.90
3994;DHT22;2011;48.238;13.948;2023-11-18T08:36:22;4.50;99.90
3994;DHT22;2011;48.238;13.948;2023-11-18T08:38:52;4.60;99.90
3994;DHT22;2011;48.238;13.948;2023-11-18T08:41:22;4.60;99.90
3994;DHT22;2011;48.238;13.948;2023-11-18T08:43:49;4.60;99.90
3994;DHT22;2011;48.238;13.948;2023-11-18T08:46:16;4.60;99.90
3994;DHT22;2011;48.238;13.948;2023-11-18T08:48:44;4.60;99.90
3994;DHT22;2011;48.238;13.948;2023-11-18T08:51:11;4.60;99.90
3994;DHT22;2011;48.238;13.948;2023-11-18T08:53:39;4.60;99.90
3994;DHT22;2011;48.238;13.948;2023-11-18T08:56:08;4.60;99.90
3994;DHT22;2011;48.238;13.948;2023-11-18T08:58:42;4.60;99.90
3994;DHT22;2011;48.238;13.948;2023-11-18T09:01:10;4.70;99.90
3994;DHT22;2011;48.238;13.948;2023-11-18T09:03:41;4.60;99.90
3994;DHT22;2011;48.238;13.948;2023-11-18T09:06:14;4.60;99.90
3994;DHT22;2011;48.238;13.948;2023-11-18T09:08:45;4.60;99.90
3994;DHT22;2011;48.238;13.948;2023-11-18T09:11:13;4.70;99.90
3994;DHT22;2011;48.238;13.948;2023-11-18T09:13:43;4.70;99.90
3994;DHT22;2011;48.238;13.948;2023-11-18T09:16:13;4.70;99.90
3994;DHT22;2011;48.238;13.948;2023-11-18T09:18:42;4.70;99.90
3994;DHT22;2011;48.238;13.948;2023-11-18T09:21:10;4.70;99.90
3994;DHT22;2011;48.238;13.948;2023-11-18T09:23:41;4.80;99.90
3994;DHT22;2011;48.238;13.948;2023-11-18T09:26:08;4.80;99.90
3994;DHT22;2011;48.238;13.948;2023-11-18T09:28:36;4.80;99.90
3994;DHT22;2011;48.238;13.948;2023-11-18T09:31:05;4.80;99.90
3994;DHT22;2011;48.238;13.948;2023-11-18T09:33:37;4.90;99.90
3994;DHT22;2011;48.238;13.948;2023-11-18T09:36:07;5.00;99.90
3994;DHT22;2011;48.238;13.948;2023-11-18T09:38:37;5.10;99.90
3994;DHT22;2011;48.238;13.948;2023-11-18T09:41:07;5.20;99.90
3994;DHT22;2011;48.238;13.948;2023-11-18T09:43:37;5.30;99.90
3994;DHT22;2011;48.238;13.948;2023-11-18T09:46:13;5.40;99.90
3994;DHT22;2011;48.238;13.948;2023-11-18T09:48:44;5.50;99.90
3994;DHT22;2011;48.238;13.948;2023-11-18T09:51:15;5.50;99.90
3994;DHT22;2011;48.238;13.948;2023-11-18T09:53:49;5.50;99.90
3994;DHT22;2011;48.238;13.948;2023-11-18T09:56:22;5.50;99.90
3994;DHT22;2011;48.238;13.948;2023-11-18T09:59:01;5.50;99.90
3994;DHT22;2011;48.238;13.948;2023-11-18T10:01:38;5.60;99.90
3994;DHT22;2011;48.238;13.948;2023-11-18T10:04:08;5.70;99.90
3994;DHT22;2011;48.238;13.948;2023-11-18T10:06:36;5.80;99.90
3994;DHT22;2011;48.238;13.948;2023-11-18T10:09:06;5.70;99.90
3994;DHT22;2011;48.238;13.948;2023-11-18T10:11:43;5.60;99.90
3994;DHT22;2011;48.238;13.948;2023-11-18T10:14:13;5.50;99.90
3994;DHT22;2011;48.238;13.948;2023-11-18T10:16:44;5.50;99.90
3994;DHT22;2011;48.238;13.948;2023-11-18T10:19:13;5.60;99.90
3994;DHT22;2011;48.238;13.948;2023-11-18T10:21:43;5.60;99.90
3994;DHT22;2011;48.238;13.948;2023-11-18T10:24:14;5.50;99.90
3994;DHT22;2011;48.238;13.948;2023-11-18T10:26:46;5.60;99.90
3994;DHT22;2011;48.238;13.948;2023-11-18T10:29:20;5.50;99.90
3994;DHT22;2011;48.238;13.948;2023-11-18T10:31:49;5.50;99.90
3994;DHT22;2011;48.238;13.948;2023-11-18T10:34:19;5.60;99.90
3994;DHT22;2011;48.238;13.948;2023-11-18T10:36:59;5.60;99.90
3994;DHT22;2011;48.238;13.948;2023-11-18T10:39:28;5.70;99.90
3994;DHT22;2011;48.238;13.948;2023-11-18T10:41:59;5.80;99.90
3994;DHT22;2011;48.238;13.948;2023-11-18T10:44:27;5.90;99.90
3994;DHT22;2011;48.238;13.948;2023-11-18T10:46:56;5.90;99.90
3994;DHT22;2011;48.238;13.948;2023-11-18T10:49:24;6.10;99.90
3994;DHT22;2011;48.238;13.948;2023-11-18T10:51:51;6.00;99.90
3994;DHT22;2011;48.238;13.948;2023-11-18T10:54:18;6.00;99.90
3994;DHT22;2011;48.238;13.948;2023-11-18T10:56:48;6.00;99.90
3994;DHT22;2011;48.238;13.948;2023-11-18T10:59:16;6.00;99.90
3994;DHT22;2011;48.238;13.948;2023-11-18T11:01:44;5.90;99.90
3994;DHT22;2011;48.238;13.948;2023-11-18T11:04:16;6.10;99.90
3994;DHT22;2011;48.238;13.948;2023-11-18T11:06:47;6.00;99.90
3994;DHT22;2011;48.238;13.948;2023-11-18T11:09:18;6.10;99.90
3994;DHT22;2011;48.238;13.948;2023-11-18T11:11:53;6.20;99.90
3994;DHT22;2011;48.238;13.948;2023-11-18T11:14:22;6.30;99.90
3994;DHT22;2011;48.238;13.948;2023-11-18T11:16:54;6.30;99.90
3994;DHT22;2011;48.238;13.948;2023-11-18T11:19:26;6.40;99.90
3994;DHT22;2011;48.238;13.948;2023-11-18T11:22:05;6.40;99.90
3994;DHT22;2011;48.238;13.948;2023-11-18T11:24:48;6.40;99.90
3994;DHT22;2011;48.238;13.948;2023-11-18T11:27:23;6.30;99.90
3994;DHT22;2011;48.238;13.948;2023-11-18T11:30:03;6.20;99.90
3994;DHT22;2011;48.238;13.948;2023-11-18T11:32:39;6.20;99.90
3994;DHT22;2011;48.238;13.948;2023-11-18T11:35:19;6.30;99.90
3994;DHT22;2011;48.238;13.948;2023-11-18T11:37:49;6.40;99.90
3994;DHT22;2011;48.238;13.948;2023-11-18T11:40:16;6.40;99.90
3994;DHT22;2011;48.238;13.948;2023-11-18T11:42:50;6.50;99.90
3994;DHT22;2011;48.238;13.948;2023-11-18T11:45:22;6.60;99.90
3994;DHT22;2011;48.238;13.948;2023-11-18T11:47:55;6.70;99.90
3994;DHT22;2011;48.238;13.948;2023-11-18T11:50:50;6.70;99.90
3994;DHT22;2011;48.238;13.948;2023-11-18T11:53:22;6.70;99.90
3994;DHT22;2011;48.238;13.948;2023-11-18T11:55:53;6.70;99.90
3994;DHT22;2011;48.238;13.948;2023-11-18T11:58:31;6.60;99.90
3994;DHT22;2011;48.238;13.948;2023-11-18T12:01:00;6.60;99.90
3994;DHT22;2011;48.238;13.948;2023-11-18T12:03:33;6.70;99.90
3994;DHT22;2011;48.238;13.948;2023-11-18T12:06:07;6.70;99.90
3994;DHT22;2011;48.238;13.948;2023-11-18T12:08:35;6.80;99.90
3994;DHT22;2011;48.238;13.948;2023-11-18T12:11:04;6.80;99.90
3994;DHT22;2011;48.238;13.948;2023-11-18T12:13:36;6.80;99.90
3994;DHT22;2011;48.238;13.948;2023-11-18T12:16:06;6.80;99.90
3994;DHT22;2011;48.238;13.948;2023-11-18T12:18:35;6.80;99.90
3994;DHT22;2011;48.238;13.948;2023-11-18T12:21:03;6.80;99.90
3994;DHT22;2011;48.238;13.948;2023-11-18T12:23:31;6.80;99.90
3994;DHT22;2011;48.238;13.948;2023-11-18T12:26:00;6.80;99.90
3994;DHT22;2011;48.238;13.948;2023-11-18T12:28:30;6.80;99.90
3994;DHT22;2011;48.238;13.948;2023-11-18T12:31:00;6.80;99.90
3994;DHT22;2011;48.238;13.948;2023-11-18T12:34:00;6.80;99.90
3994;DHT22;2011;48.238;13.948;2023-11-18T12:37:05;6.90;99.90
3994;DHT22;2011;48.238;13.948;2023-11-18T12:40:07;6.90;99.90
3994;DHT22;2011;48.238;13.948;2023-11-18T12:42:59;6.90;99.90
3994;DHT22;2011;48.238;13.948;2023-11-18T12:45:50;6.90;99.90
3994;DHT22;2011;48.238;13.948;2023-11-18T12:48:21;6.90;99.90
3994;DHT22;2011;48.238;13.948;2023-11-18T12:50:53;7.00;99.90
3994;DHT22;2011;48.238;13.948;2023-11-18T12:53:22;6.90;99.90
3994;DHT22;2011;48.238;13.948;2023-11-18T12:55:52;6.90;99.90
3994;DHT22;2011;48.238;13.948;2023-11-18T12:58:19;6.80;99.90
3994;DHT22;2011;48.238;13.948;2023-11-18T13:00:48;6.80;99.90
3994;DHT22;2011;48.238;13.948;2023-11-18T13:03:15;6.70;99.90
3994;DHT22;2011;48.238;13.948;2023-11-18T13:05:43;6.70;99.90
3994;DHT22;2011;48.238;13.948;2023-11-18T13:08:11;6.70;99.90
3994;DHT22;2011;48.238;13.948;2023-11-18T13:10:41;6.70;99.90
3994;DHT22;2011;48.238;13.948;2023-11-18T13:13:10;6.70;99.90
3994;DHT22;2011;48.238;13.948;2023-11-18T13:15:40;6.70;99.90
3994;DHT22;2011;48.238;13.948;2023-11-18T13:18:06;6.70;99.90
3994;DHT22;2011;48.238;13.948;2023-11-18T13:20:34;6.80;99.90
3994;DHT22;2011;48.238;13.948;2023-11-18T13:23:01;7.00;99.90
3994;DHT22;2011;48.238;13.948;2023-11-18T13:25:34;7.10;99.90
3994;DHT22;2011;48.238;13.948;2023-11-18T13:28:03;7.20;99.90
3994;DHT22;2011;48.238;13.948;2023-11-18T13:30:32;7.20;99.90
3994;DHT22;2011;48.238;13.948;2023-11-18T13:33:01;7.20;99.90
3994;DHT22;2011;48.238;13.948;2023-11-18T13:35:29;7.20;99.90
3994;DHT22;2011;48.238;13.948;2023-11-18T13:37:56;7.20;99.90
3994;DHT22;2011;48.238;13.948;2023-11-18T13:40:24;7.30;99.90
3994;DHT22;2011;48.238;13.948;2023-11-18T13:43:01;7.30;99.90
3994;DHT22;2011;48.238;13.948;2023-11-18T13:45:32;7.30;99.90
3994;DHT22;2011;48.238;13.948;2023-11-18T13:48:00;7.20;99.90
3994;DHT22;2011;48.238;13.948;2023-11-18T13:50:27;7.20;99.90
3994;DHT22;2011;48.238;13.948;2023-11-18T13:52:56;7.20;99.90
3994;DHT22;2011;48.238;13.948;2023-11-18T13:55:24;7.20;99.90
3994;DHT22;2011;48.238;13.948;2023-11-18T13:57:53;7.20;99.90
3994;DHT22;2011;48.238;13.948;2023-11-18T14:00:24;7.30;99.90
3994;DHT22;2011;48.238;13.948;2023-11-18T14:02:57;7.30;99.90
3994;DHT22;2011;48.238;13.948;2023-11-18T14:05:24;7.30;99.90
3994;DHT22;2011;48.238;13.948;2023-11-18T14:07:52;7.30;99.90
3994;DHT22;2011;48.238;13.948;2023-11-18T14:10:21;7.30;99.90
3994;DHT22;2011;48.238;13.948;2023-11-18T14:12:59;7.30;99.90
3994;DHT22;2011;48.238;13.948;2023-11-18T14:15:26;7.30;99.90
3994;DHT22;2011;48.238;13.948;2023-11-18T14:17:55;7.30;99.90
3994;DHT22;2011;48.238;13.948;2023-11-18T14:20:22;7.40;99.90
3994;DHT22;2011;48.238;13.948;2023-11-18T14:22:49;7.40;99.90
3994;DHT22;2011;48.238;13.948;2023-11-18T14:25:16;7.40;99.90
3994;DHT22;2011;48.238;13.948;2023-11-18T14:27:43;7.40;99.90
3994;DHT22;2011;48.238;13.948;2023-11-18T14:30:12;7.40;99.90
3994;DHT22;2011;48.238;13.948;2023-11-18T14:32:39;7.40;99.90
3994;DHT22;2011;48.238;13.948;2023-11-18T14:35:07;7.30;99.90
3994;DHT22;2011;48.238;13.948;2023-11-18T14:37:38;7.30;99.90
3994;DHT22;2011;48.238;13.948;2023-11-18T14:40:10;7.20;99.90
3994;DHT22;2011;48.238;13.948;2023-11-18T14:42:46;7.20;99.90
3994;DHT22;2011;48.238;13.948;2023-11-18T14:45:14;7.20;99.90
3994;DHT22;2011;48.238;13.948;2023-11-18T14:47:42;7.20;99.90
3994;DHT22;2011;48.238;13.948;2023-11-18T14:50:12;7.20;99.90
3994;DHT22;2011;48.238;13.948;2023-11-18T14:52:44;7.20;99.90
3994;DHT22;2011;48.238;13.948;2023-11-18T14:55:11;7.20;99.90
3994;DHT22;2011;48.238;13.948;2023-11-18T14:57:39;7.20;99.90
3994;DHT22;2011;48.238;13.948;2023-11-18T15:00:07;7.20;99.90
3994;DHT22;2011;48.238;13.948;2023-11-18T15:02:35;7.20;99.90
3994;DHT22;2011;48.238;13.948;2023-11-18T15:05:02;7.20;99.90
3994;DHT22;2011;48.238;13.948;2023-11-18T15:07:32;7.20;99.90
3994;DHT22;2011;48.238;13.948;2023-11-18T15:09:59;7.20;99.90
3994;DHT22;2011;48.238;13.948;2023-11-18T15:12:26;7.20;99.90
3994;DHT22;2011;48.238;13.948;2023-11-18T15:14:54;7.10;99.90
3994;DHT22;2011;48.238;13.948;2023-11-18T15:17:21;7.10;99.90
3994;DHT22;2011;48.238;13.948;2023-11-18T15:19:48;7.10;99.90
3994;DHT22;2011;48.238;13.948;2023-11-18T15:22:16;7.10;99.90
3994;DHT22;2011;48.238;13.948;2023-11-18T15:24:44;7.00;99.90
3994;DHT22;2011;48.238;13.948;2023-11-18T15:27:13;7.00;99.90
3994;DHT22;2011;48.238;13.948;2023-11-18T15:29:40;7.00;99.90
3994;DHT22;2011;48.238;13.948;2023-11-18T15:32:16;7.00;99.90
3994;DHT22;2011;48.238;13.948;2023-11-18T15:34:44;7.00;99.90
3994;DHT22;2011;48.238;13.948;2023-11-18T15:37:11;7.00;99.90
3994;DHT22;2011;48.238;13.948;2023-11-18T15:39:38;7.00;99.90
3994;DHT22;2011;48.238;13.948;2023-11-18T15:42:08;7.00;99.90
3994;DHT22;2011;48.238;13.948;2023-11-18T15:44:36;7.00;99.90
3994;DHT22;2011;48.238;13.948;2023-11-18T15:47:04;7.00;99.90
3994;DHT22;2011;48.238;13.948;2023-11-18T15:49:32;7.00;99.90
3994;DHT22;2011;48.238;13.948;2023-11-18T15:51:58;6.90;99.90
3994;DHT22;2011;48.238;13.948;2023-11-18T15:54:28;6.90;99.90
3994;DHT22;2011;48.238;13.948;2023-11-18T15:56:54;6.90;99.90
3994;DHT22;2011;48.238;13.948;2023-11-18T15:59:23;6.80;99.90
3994;DHT22;2011;48.238;13.948;2023-11-18T16:01:51;6.80;99.90
3994;DHT22;2011;48.238;13.948;2023-11-18T16:04:18;6.80;99.90
3994;DHT22;2011;48.238;13.948;2023-11-18T16:06:45;6.70;99.90
3994;DHT22;2011;48.238;13.948;2023-11-18T16:09:12;6.60;99.90
3994;DHT22;2011;48.238;13.948;2023-11-18T16:11:39;6.60;99.90
3994;DHT22;2011;48.238;13.948;2023-11-18T16:14:06;6.50;99.90
3994;DHT22;2011;48.238;13.948;2023-11-18T16:16:35;6.50;99.90
3994;DHT22;2011;48.238;13.948;2023-11-18T16:19:03;6.50;99.90